Airfield :
LOGIN :

Register | Disclaimer

   EN    FR    IT 

 










Legend :    VFR   Marginal VFR   IFR   Intensive IFR   Very Intensive IFR
Visi :
Ceiling :
>= 8 km
>= 3000ft
5 to 8 km
1000 to 3000 ft
1500m to 5 km
500 to 1000 ft
800 to 1500m
200 to 500 ft
< 800m
< 200 ft
Symbols :   Thunderstorms  Fog  Heavy snow  Heavy precipitations  Wind > 20 kt
SIGMETs :     Misc.  Thunderstorms  Icing  Turbulence  Mountain Waves  Volcanic Ashes







- Airport Elevation : 512 ft
- IATA code : URO
- Download approach charts


LFOP - Rouen Vallée de Seine

CURRENT METAR :
  • 130700Z AUTO 11011KT 9000 BKN008 M00/M01 Q1014 NOSIG

EXPIRED METARs :
  • 130630Z AUTO 11011KT 8000 OVC008 M00/M01 Q1013 NOSIG
  • 130600Z AUTO 10016KT 7000 OVC007 M00/M01 Q1013 NOSIG
  • 130530Z AUTO 10017KT 8000 OVC007 M00/M01 Q1014 NOSIG
  • 130500Z AUTO 11011KT 8000 OVC007 00/M01 Q1014
  • 130430Z AUTO 11011KT 7000 OVC007 00/M01 Q1015

TAF TAF LFOP
Valid from the 13 at 06:00 until the 14 at 06:00 UTC


130500Z 1306/1406 11013KT 7000 NSC
TEMPO 1306/1309 OVC006
PROB30 1403/1406 OVC003
ATIS : +33 2 35 80 80 34
Met : +33 2 32 86 52 80
No reported NOTAMs for that airfield.



MET'MAP, your aeronautical weather chart ! - Copyright ORBIFLY December 2007 - Disclaimer

ORBIFLY MET'MAP TEAM :

Programming & Development : Alexandra Zaïnal
Concept & Development : Baudouin d'Aumeries
Co-Development & Prog : Marc-Olivier Méhu
Technical & hardware support : Manuel Goepfert

Contact : metmap@orbifly.com




SOURCES & CREDITS :

   NOAA